sensor_id;sensor_type;location;lat;lon;timestamp;pressure;altitude;pressure_sealevel;temperature
19282;BMP180;9774;52.034;5.342;2024-03-02T00:01:40;99565.00;;;14.30
19282;BMP180;9774;52.034;5.342;2024-03-02T00:04:08;99566.00;;;14.30
19282;BMP180;9774;52.034;5.342;2024-03-02T00:06:37;99566.00;;;14.30
19282;BMP180;9774;52.034;5.342;2024-03-02T00:09:04;99580.00;;;14.40
19282;BMP180;9774;52.034;5.342;2024-03-02T00:11:35;99588.00;;;14.30
19282;BMP180;9774;52.034;5.342;2024-03-02T00:14:03;99598.00;;;14.40
19282;BMP180;9774;52.034;5.342;2024-03-02T00:16:30;99601.00;;;14.40
19282;BMP180;9774;52.034;5.342;2024-03-02T00:19:02;99611.00;;;14.40
19282;BMP180;9774;52.034;5.342;2024-03-02T00:21:31;99620.00;;;14.40
19282;BMP180;9774;52.034;5.342;2024-03-02T00:24:01;99631.00;;;14.40
19282;BMP180;9774;52.034;5.342;2024-03-02T00:26:33;99650.00;;;14.50
19282;BMP180;9774;52.034;5.342;2024-03-02T00:29:00;99675.00;;;14.50
19282;BMP180;9774;52.034;5.342;2024-03-02T00:31:27;99679.00;;;14.50
19282;BMP180;9774;52.034;5.342;2024-03-02T00:33:54;99679.00;;;14.50
19282;BMP180;9774;52.034;5.342;2024-03-02T00:36:26;99669.00;;;14.50
19282;BMP180;9774;52.034;5.342;2024-03-02T00:38:54;99684.00;;;14.50
19282;BMP180;9774;52.034;5.342;2024-03-02T00:41:27;99680.00;;;14.50
19282;BMP180;9774;52.034;5.342;2024-03-02T00:43:58;99672.00;;;14.50
19282;BMP180;9774;52.034;5.342;2024-03-02T00:46:29;99672.00;;;14.50
19282;BMP180;9774;52.034;5.342;2024-03-02T00:48:58;99678.00;;;14.50
19282;BMP180;9774;52.034;5.342;2024-03-02T00:51:28;99672.00;;;14.50
19282;BMP180;9774;52.034;5.342;2024-03-02T00:53:59;99680.00;;;14.50
19282;BMP180;9774;52.034;5.342;2024-03-02T00:56:28;99680.00;;;14.50
19282;BMP180;9774;52.034;5.342;2024-03-02T00:58:55;99682.00;;;14.40
19282;BMP180;9774;52.034;5.342;2024-03-02T01:01:22;99673.00;;;14.50
19282;BMP180;9774;52.034;5.342;2024-03-02T01:03:50;99690.00;;;14.50
19282;BMP180;9774;52.034;5.342;2024-03-02T01:06:17;99684.00;;;14.40
19282;BMP180;9774;52.034;5.342;2024-03-02T01:08:45;99679.00;;;14.40
19282;BMP180;9774;52.034;5.342;2024-03-02T01:11:16;99678.00;;;14.40
19282;BMP180;9774;52.034;5.342;2024-03-02T01:13:45;99677.00;;;14.40
19282;BMP180;9774;52.034;5.342;2024-03-02T01:16:13;99691.00;;;14.40
19282;BMP180;9774;52.034;5.342;2024-03-02T01:18:41;99690.00;;;14.30
19282;BMP180;9774;52.034;5.342;2024-03-02T01:21:08;99694.00;;;14.30
19282;BMP180;9774;52.034;5.342;2024-03-02T01:23:36;99700.00;;;14.30
19282;BMP180;9774;52.034;5.342;2024-03-02T01:26:03;99694.00;;;14.20
19282;BMP180;9774;52.034;5.342;2024-03-02T01:28:31;99695.00;;;14.20
19282;BMP180;9774;52.034;5.342;2024-03-02T01:31:00;99689.00;;;14.20
19282;BMP180;9774;52.034;5.342;2024-03-02T01:33:27;99690.00;;;14.10
19282;BMP180;9774;52.034;5.342;2024-03-02T01:35:55;99700.00;;;14.10
19282;BMP180;9774;52.034;5.342;2024-03-02T01:38:22;99706.00;;;14.10
19282;BMP180;9774;52.034;5.342;2024-03-02T01:40:49;99706.00;;;14.10
19282;BMP180;9774;52.034;5.342;2024-03-02T01:43:17;99712.00;;;14.10
19282;BMP180;9774;52.034;5.342;2024-03-02T01:45:44;99711.00;;;14.10
19282;BMP180;9774;52.034;5.342;2024-03-02T01:48:13;99720.00;;;14.00
19282;BMP180;9774;52.034;5.342;2024-03-02T01:50:40;99717.00;;;14.00
19282;BMP180;9774;52.034;5.342;2024-03-02T01:53:08;99711.00;;;14.00
19282;BMP180;9774;52.034;5.342;2024-03-02T01:55:35;99721.00;;;14.00
19282;BMP180;9774;52.034;5.342;2024-03-02T01:58:03;99718.00;;;14.00
19282;BMP180;9774;52.034;5.342;2024-03-02T02:00:30;99710.00;;;13.90
19282;BMP180;9774;52.034;5.342;2024-03-02T02:02:58;99707.00;;;13.90
19282;BMP180;9774;52.034;5.342;2024-03-02T02:05:26;99709.00;;;13.90
19282;BMP180;9774;52.034;5.342;2024-03-02T02:07:54;99719.00;;;13.90
19282;BMP180;9774;52.034;5.342;2024-03-02T02:10:21;99716.00;;;13.80
19282;BMP180;9774;52.034;5.342;2024-03-02T02:12:48;99720.00;;;13.80
19282;BMP180;9774;52.034;5.342;2024-03-02T02:15:26;99719.00;;;13.70
19282;BMP180;9774;52.034;5.342;2024-03-02T02:17:54;99710.00;;;13.80
19282;BMP180;9774;52.034;5.342;2024-03-02T02:20:21;99706.00;;;13.80
19282;BMP180;9774;52.034;5.342;2024-03-02T02:23:00;99706.00;;;13.70
19282;BMP180;9774;52.034;5.342;2024-03-02T02:25:28;99703.00;;;13.70
19282;BMP180;9774;52.034;5.342;2024-03-02T02:27:56;99705.00;;;13.70
19282;BMP180;9774;52.034;5.342;2024-03-02T02:30:25;99699.00;;;13.70
19282;BMP180;9774;52.034;5.342;2024-03-02T02:32:53;99706.00;;;13.70
19282;BMP180;9774;52.034;5.342;2024-03-02T02:35:20;99720.00;;;13.70
19282;BMP180;9774;52.034;5.342;2024-03-02T02:37:48;99717.00;;;13.60
19282;BMP180;9774;52.034;5.342;2024-03-02T02:40:18;99713.00;;;13.60
19282;BMP180;9774;52.034;5.342;2024-03-02T02:42:45;99706.00;;;13.60
19282;BMP180;9774;52.034;5.342;2024-03-02T02:45:12;99713.00;;;13.60
19282;BMP180;9774;52.034;5.342;2024-03-02T02:47:40;99706.00;;;13.50
19282;BMP180;9774;52.034;5.342;2024-03-02T02:50:08;99709.00;;;13.50
19282;BMP180;9774;52.034;5.342;2024-03-02T02:52:38;99714.00;;;13.50
19282;BMP180;9774;52.034;5.342;2024-03-02T02:55:09;99711.00;;;13.50
19282;BMP180;9774;52.034;5.342;2024-03-02T02:57:40;99708.00;;;13.40
19282;BMP180;9774;52.034;5.342;2024-03-02T03:00:09;99710.00;;;13.40
19282;BMP180;9774;52.034;5.342;2024-03-02T03:02:40;99702.00;;;13.40
19282;BMP180;9774;52.034;5.342;2024-03-02T03:05:09;99710.00;;;13.40
19282;BMP180;9774;52.034;5.342;2024-03-02T03:07:37;99708.00;;;13.40
19282;BMP180;9774;52.034;5.342;2024-03-02T03:10:07;99710.00;;;13.40
19282;BMP180;9774;52.034;5.342;2024-03-02T03:12:36;99706.00;;;13.30
19282;BMP180;9774;52.034;5.342;2024-03-02T03:15:04;99714.00;;;13.30
19282;BMP180;9774;52.034;5.342;2024-03-02T03:17:32;99705.00;;;13.30
19282;BMP180;9774;52.034;5.342;2024-03-02T03:19:59;99715.00;;;13.30
19282;BMP180;9774;52.034;5.342;2024-03-02T03:22:28;99703.00;;;13.30
19282;BMP180;9774;52.034;5.342;2024-03-02T03:24:55;99713.00;;;13.30
19282;BMP180;9774;52.034;5.342;2024-03-02T03:27:22;99712.00;;;13.30
19282;BMP180;9774;52.034;5.342;2024-03-02T03:29:50;99728.00;;;13.20
19282;BMP180;9774;52.034;5.342;2024-03-02T03:32:18;99720.00;;;13.20
19282;BMP180;9774;52.034;5.342;2024-03-02T03:34:45;99720.00;;;13.20
19282;BMP180;9774;52.034;5.342;2024-03-02T03:37:13;99726.00;;;13.20
19282;BMP180;9774;52.034;5.342;2024-03-02T03:39:41;99724.00;;;13.20
19282;BMP180;9774;52.034;5.342;2024-03-02T03:42:08;99714.00;;;13.20
19282;BMP180;9774;52.034;5.342;2024-03-02T03:44:35;99727.00;;;13.20
19282;BMP180;9774;52.034;5.342;2024-03-02T03:47:04;99730.00;;;13.20
19282;BMP180;9774;52.034;5.342;2024-03-02T03:49:31;99726.00;;;13.20
19282;BMP180;9774;52.034;5.342;2024-03-02T03:51:58;99730.00;;;13.20
19282;BMP180;9774;52.034;5.342;2024-03-02T03:54:26;99729.00;;;13.20
19282;BMP180;9774;52.034;5.342;2024-03-02T03:56:53;99729.00;;;13.20
19282;BMP180;9774;52.034;5.342;2024-03-02T03:59:20;99726.00;;;13.20
19282;BMP180;9774;52.034;5.342;2024-03-02T04:01:47;99726.00;;;13.20
19282;BMP180;9774;52.034;5.342;2024-03-02T04:04:16;99736.00;;;13.20
19282;BMP180;9774;52.034;5.342;2024-03-02T04:06:43;99729.00;;;13.20
19282;BMP180;9774;52.034;5.342;2024-03-02T04:09:10;99735.00;;;13.20
19282;BMP180;9774;52.034;5.342;2024-03-02T04:11:37;99738.00;;;13.30
19282;BMP180;9774;52.034;5.342;2024-03-02T04:14:04;99738.00;;;13.30
19282;BMP180;9774;52.034;5.342;2024-03-02T04:16:32;99744.00;;;13.30
19282;BMP180;9774;52.034;5.342;2024-03-02T04:18:59;99748.00;;;13.30
19282;BMP180;9774;52.034;5.342;2024-03-02T04:21:28;99748.00;;;13.30
19282;BMP180;9774;52.034;5.342;2024-03-02T04:23:55;99748.00;;;13.30
19282;BMP180;9774;52.034;5.342;2024-03-02T04:26:24;99747.00;;;13.40
19282;BMP180;9774;52.034;5.342;2024-03-02T04:28:51;99743.00;;;13.40
19282;BMP180;9774;52.034;5.342;2024-03-02T04:31:18;99743.00;;;13.40
19282;BMP180;9774;52.034;5.342;2024-03-02T04:33:46;99746.00;;;13.40
19282;BMP180;9774;52.034;5.342;2024-03-02T04:36:13;99748.00;;;13.40
19282;BMP180;9774;52.034;5.342;2024-03-02T04:38:41;99750.00;;;13.40
19282;BMP180;9774;52.034;5.342;2024-03-02T04:41:08;99750.00;;;13.30
19282;BMP180;9774;52.034;5.342;2024-03-02T04:43:35;99755.00;;;13.30
19282;BMP180;9774;52.034;5.342;2024-03-02T04:46:03;99754.00;;;13.30
19282;BMP180;9774;52.034;5.342;2024-03-02T04:48:31;99764.00;;;13.30
19282;BMP180;9774;52.034;5.342;2024-03-02T04:50:58;99758.00;;;13.30
19282;BMP180;9774;52.034;5.342;2024-03-02T04:53:25;99765.00;;;13.30
19282;BMP180;9774;52.034;5.342;2024-03-02T04:55:53;99765.00;;;13.30
19282;BMP180;9774;52.034;5.342;2024-03-02T04:58:38;99772.00;;;13.30
19282;BMP180;9774;52.034;5.342;2024-03-02T05:01:05;99775.00;;;13.30
19282;BMP180;9774;52.034;5.342;2024-03-02T05:03:32;99778.00;;;13.30
19282;BMP180;9774;52.034;5.342;2024-03-02T05:06:00;99774.00;;;13.30
19282;BMP180;9774;52.034;5.342;2024-03-02T05:08:27;99777.00;;;13.30
19282;BMP180;9774;52.034;5.342;2024-03-02T05:10:56;99783.00;;;13.30
19282;BMP180;9774;52.034;5.342;2024-03-02T05:13:43;99785.00;;;13.30
19282;BMP180;9774;52.034;5.342;2024-03-02T05:16:09;99781.00;;;13.30
19282;BMP180;9774;52.034;5.342;2024-03-02T05:18:38;99775.00;;;13.30
19282;BMP180;9774;52.034;5.342;2024-03-02T05:21:05;99773.00;;;13.30
19282;BMP180;9774;52.034;5.342;2024-03-02T05:23:32;99788.00;;;13.30
19282;BMP180;9774;52.034;5.342;2024-03-02T05:26:01;99790.00;;;13.30
19282;BMP180;9774;52.034;5.342;2024-03-02T05:28:28;99784.00;;;13.30
19282;BMP180;9774;52.034;5.342;2024-03-02T05:30:55;99781.00;;;13.30
19282;BMP180;9774;52.034;5.342;2024-03-02T05:33:22;99787.00;;;13.20
19282;BMP180;9774;52.034;5.342;2024-03-02T05:35:49;99785.00;;;13.20
19282;BMP180;9774;52.034;5.342;2024-03-02T05:38:17;99788.00;;;13.20
19282;BMP180;9774;52.034;5.342;2024-03-02T05:40:44;99780.00;;;13.20
19282;BMP180;9774;52.034;5.342;2024-03-02T05:43:12;99791.00;;;13.10
19282;BMP180;9774;52.034;5.342;2024-03-02T05:45:40;99783.00;;;13.10
19282;BMP180;9774;52.034;5.342;2024-03-02T05:48:07;99788.00;;;13.10
19282;BMP180;9774;52.034;5.342;2024-03-02T05:50:35;99797.00;;;13.00
19282;BMP180;9774;52.034;5.342;2024-03-02T05:53:02;99796.00;;;13.00
19282;BMP180;9774;52.034;5.342;2024-03-02T05:55:29;99798.00;;;13.00
19282;BMP180;9774;52.034;5.342;2024-03-02T05:57:57;99804.00;;;13.00
19282;BMP180;9774;52.034;5.342;2024-03-02T06:00:42;99797.00;;;13.00
19282;BMP180;9774;52.034;5.342;2024-03-02T06:03:09;99805.00;;;13.00
19282;BMP180;9774;52.034;5.342;2024-03-02T06:05:36;99801.00;;;13.00
19282;BMP180;9774;52.034;5.342;2024-03-02T06:08:04;99804.00;;;13.00
19282;BMP180;9774;52.034;5.342;2024-03-02T06:10:31;99822.00;;;13.00
19282;BMP180;9774;52.034;5.342;2024-03-02T06:12:58;99817.00;;;13.00
19282;BMP180;9774;52.034;5.342;2024-03-02T06:15:26;99820.00;;;13.00
19282;BMP180;9774;52.034;5.342;2024-03-02T06:17:54;99820.00;;;13.00
19282;BMP180;9774;52.034;5.342;2024-03-02T06:20:21;99825.00;;;13.00
19282;BMP180;9774;52.034;5.342;2024-03-02T06:22:50;99832.00;;;13.00
19282;BMP180;9774;52.034;5.342;2024-03-02T06:25:17;99831.00;;;13.00
19282;BMP180;9774;52.034;5.342;2024-03-02T06:27:44;99836.00;;;13.00
19282;BMP180;9774;52.034;5.342;2024-03-02T06:30:12;99844.00;;;13.00
19282;BMP180;9774;52.034;5.342;2024-03-02T06:32:40;99844.00;;;13.00
19282;BMP180;9774;52.034;5.342;2024-03-02T06:35:08;99843.00;;;13.00
19282;BMP180;9774;52.034;5.342;2024-03-02T06:37:36;99845.00;;;13.00
19282;BMP180;9774;52.034;5.342;2024-03-02T06:40:04;99842.00;;;13.00
19282;BMP180;9774;52.034;5.342;2024-03-02T06:42:33;99850.00;;;13.00
19282;BMP180;9774;52.034;5.342;2024-03-02T06:45:00;99841.00;;;13.00
19282;BMP180;9774;52.034;5.342;2024-03-02T06:47:28;99841.00;;;13.00
19282;BMP180;9774;52.034;5.342;2024-03-02T06:49:55;99842.00;;;13.00
19282;BMP180;9774;52.034;5.342;2024-03-02T06:52:24;99836.00;;;13.00
19282;BMP180;9774;52.034;5.342;2024-03-02T06:54:51;99851.00;;;13.00
19282;BMP180;9774;52.034;5.342;2024-03-02T06:57:18;99853.00;;;13.00
19282;BMP180;9774;52.034;5.342;2024-03-02T06:59:46;99843.00;;;13.00
19282;BMP180;9774;52.034;5.342;2024-03-02T07:02:15;99843.00;;;13.10
19282;BMP180;9774;52.034;5.342;2024-03-02T07:04:43;99841.00;;;13.10
19282;BMP180;9774;52.034;5.342;2024-03-02T07:07:11;99838.00;;;13.10
19282;BMP180;9774;52.034;5.342;2024-03-02T07:09:40;99844.00;;;13.10
19282;BMP180;9774;52.034;5.342;2024-03-02T07:12:07;99847.00;;;13.10
19282;BMP180;9774;52.034;5.342;2024-03-02T07:14:35;99842.00;;;13.10
19282;BMP180;9774;52.034;5.342;2024-03-02T07:17:19;99850.00;;;13.10
19282;BMP180;9774;52.034;5.342;2024-03-02T07:19:47;99848.00;;;13.10
19282;BMP180;9774;52.034;5.342;2024-03-02T07:22:14;99854.00;;;13.10
19282;BMP180;9774;52.034;5.342;2024-03-02T07:24:43;99860.00;;;13.20
19282;BMP180;9774;52.034;5.342;2024-03-02T07:27:12;99861.00;;;13.20
19282;BMP180;9774;52.034;5.342;2024-03-02T07:29:40;99857.00;;;13.20
19282;BMP180;9774;52.034;5.342;2024-03-02T07:32:08;99858.00;;;13.20
19282;BMP180;9774;52.034;5.342;2024-03-02T07:34:36;99859.00;;;13.20
19282;BMP180;9774;52.034;5.342;2024-03-02T07:37:04;99876.00;;;13.30
19282;BMP180;9774;52.034;5.342;2024-03-02T07:39:31;99875.00;;;13.30
19282;BMP180;9774;52.034;5.342;2024-03-02T07:42:00;99876.00;;;13.30
19282;BMP180;9774;52.034;5.342;2024-03-02T07:44:27;99871.00;;;13.30
19282;BMP180;9774;52.034;5.342;2024-03-02T07:46:55;99880.00;;;13.30
19282;BMP180;9774;52.034;5.342;2024-03-02T07:49:22;99882.00;;;13.30
19282;BMP180;9774;52.034;5.342;2024-03-02T07:51:49;99882.00;;;13.30
19282;BMP180;9774;52.034;5.342;2024-03-02T07:54:16;99889.00;;;13.20
19282;BMP180;9774;52.034;5.342;2024-03-02T07:56:44;99885.00;;;13.20
19282;BMP180;9774;52.034;5.342;2024-03-02T07:59:13;99882.00;;;13.20
19282;BMP180;9774;52.034;5.342;2024-03-02T08:01:40;99882.00;;;13.20
19282;BMP180;9774;52.034;5.342;2024-03-02T08:04:07;99884.00;;;13.20
19282;BMP180;9774;52.034;5.342;2024-03-02T08:06:34;99888.00;;;13.20
19282;BMP180;9774;52.034;5.342;2024-03-02T08:09:02;99892.00;;;13.20
19282;BMP180;9774;52.034;5.342;2024-03-02T08:11:30;99891.00;;;13.20
19282;BMP180;9774;52.034;5.342;2024-03-02T08:13:57;99889.00;;;13.10
19282;BMP180;9774;52.034;5.342;2024-03-02T08:16:26;99893.00;;;13.10
19282;BMP180;9774;52.034;5.342;2024-03-02T08:18:53;99893.00;;;13.10
19282;BMP180;9774;52.034;5.342;2024-03-02T08:21:23;99896.00;;;13.10
19282;BMP180;9774;52.034;5.342;2024-03-02T08:23:51;99902.00;;;13.10
19282;BMP180;9774;52.034;5.342;2024-03-02T08:26:18;99897.00;;;13.10
19282;BMP180;9774;52.034;5.342;2024-03-02T08:28:45;99896.00;;;13.10
19282;BMP180;9774;52.034;5.342;2024-03-02T08:31:12;99885.00;;;13.10
19282;BMP180;9774;52.034;5.342;2024-03-02T08:33:43;99897.00;;;13.10
19282;BMP180;9774;52.034;5.342;2024-03-02T08:36:10;99899.00;;;13.10
19282;BMP180;9774;52.034;5.342;2024-03-02T08:38:37;99893.00;;;13.20
19282;BMP180;9774;52.034;5.342;2024-03-02T08:41:05;99895.00;;;13.20
19282;BMP180;9774;52.034;5.342;2024-03-02T08:43:33;99896.00;;;13.30
19282;BMP180;9774;52.034;5.342;2024-03-02T08:46:00;99890.00;;;13.30
19282;BMP180;9774;52.034;5.342;2024-03-02T08:48:27;99892.00;;;13.40
19282;BMP180;9774;52.034;5.342;2024-03-02T08:50:56;99889.00;;;13.40
19282;BMP180;9774;52.034;5.342;2024-03-02T08:53:24;99894.00;;;13.40
19282;BMP180;9774;52.034;5.342;2024-03-02T08:55:51;99894.00;;;13.50
19282;BMP180;9774;52.034;5.342;2024-03-02T08:58:21;99892.00;;;13.50
19282;BMP180;9774;52.034;5.342;2024-03-02T09:00:48;99900.00;;;13.60
19282;BMP180;9774;52.034;5.342;2024-03-02T09:03:15;99901.00;;;13.70
19282;BMP180;9774;52.034;5.342;2024-03-02T09:05:42;99907.00;;;13.70
19282;BMP180;9774;52.034;5.342;2024-03-02T09:08:11;99907.00;;;13.80
19282;BMP180;9774;52.034;5.342;2024-03-02T09:10:38;99913.00;;;13.90
19282;BMP180;9774;52.034;5.342;2024-03-02T09:13:05;99903.00;;;13.90
19282;BMP180;9774;52.034;5.342;2024-03-02T09:15:33;99903.00;;;14.00
19282;BMP180;9774;52.034;5.342;2024-03-02T09:18:04;99906.00;;;14.00
19282;BMP180;9774;52.034;5.342;2024-03-02T09:20:31;99903.00;;;14.10
19282;BMP180;9774;52.034;5.342;2024-03-02T09:22:58;99896.00;;;14.10
19282;BMP180;9774;52.034;5.342;2024-03-02T09:25:26;99912.00;;;14.20
19282;BMP180;9774;52.034;5.342;2024-03-02T09:27:53;99896.00;;;14.20
19282;BMP180;9774;52.034;5.342;2024-03-02T09:30:20;99900.00;;;14.30
19282;BMP180;9774;52.034;5.342;2024-03-02T09:32:47;99910.00;;;14.30
19282;BMP180;9774;52.034;5.342;2024-03-02T09:35:15;99903.00;;;14.40
19282;BMP180;9774;52.034;5.342;2024-03-02T09:37:42;99900.00;;;14.50
19282;BMP180;9774;52.034;5.342;2024-03-02T09:40:10;99907.00;;;14.50
19282;BMP180;9774;52.034;5.342;2024-03-02T09:42:39;99912.00;;;14.60
19282;BMP180;9774;52.034;5.342;2024-03-02T09:45:08;99912.00;;;14.60
19282;BMP180;9774;52.034;5.342;2024-03-02T09:47:36;99903.00;;;14.70
19282;BMP180;9774;52.034;5.342;2024-03-02T09:50:03;99911.00;;;14.70
19282;BMP180;9774;52.034;5.342;2024-03-02T09:52:31;99919.00;;;14.80
19282;BMP180;9774;52.034;5.342;2024-03-02T09:54:58;99914.00;;;14.90
19282;BMP180;9774;52.034;5.342;2024-03-02T09:57:26;99917.00;;;15.00
19282;BMP180;9774;52.034;5.342;2024-03-02T09:59:54;99915.00;;;15.00
19282;BMP180;9774;52.034;5.342;2024-03-02T10:02:21;99923.00;;;15.10
19282;BMP180;9774;52.034;5.342;2024-03-02T10:04:49;99916.00;;;15.10
19282;BMP180;9774;52.034;5.342;2024-03-02T10:07:18;99908.00;;;15.20
19282;BMP180;9774;52.034;5.342;2024-03-02T10:09:47;99920.00;;;15.30
19282;BMP180;9774;52.034;5.342;2024-03-02T10:12:17;99918.00;;;15.40
19282;BMP180;9774;52.034;5.342;2024-03-02T10:14:44;99919.00;;;15.50
19282;BMP180;9774;52.034;5.342;2024-03-02T10:17:18;99914.00;;;15.50
19282;BMP180;9774;52.034;5.342;2024-03-02T10:19:45;99923.00;;;15.60
19282;BMP180;9774;52.034;5.342;2024-03-02T10:22:12;99912.00;;;15.70
19282;BMP180;9774;52.034;5.342;2024-03-02T10:24:41;99914.00;;;15.70
19282;BMP180;9774;52.034;5.342;2024-03-02T10:27:15;99917.00;;;15.80
19282;BMP180;9774;52.034;5.342;2024-03-02T10:29:46;99910.00;;;15.80
19282;BMP180;9774;52.034;5.342;2024-03-02T10:32:15;99914.00;;;15.90
19282;BMP180;9774;52.034;5.342;2024-03-02T10:34:45;99908.00;;;16.00
19282;BMP180;9774;52.034;5.342;2024-03-02T10:37:14;99904.00;;;16.00
19282;BMP180;9774;52.034;5.342;2024-03-02T10:39:43;99906.00;;;16.10
19282;BMP180;9774;52.034;5.342;2024-03-02T10:42:11;99899.00;;;16.10
19282;BMP180;9774;52.034;5.342;2024-03-02T10:44:39;99889.00;;;16.20
19282;BMP180;9774;52.034;5.342;2024-03-02T10:47:10;99882.00;;;16.20
19282;BMP180;9774;52.034;5.342;2024-03-02T10:49:42;99898.00;;;16.30
19282;BMP180;9774;52.034;5.342;2024-03-02T10:52:09;99876.00;;;16.40
19282;BMP180;9774;52.034;5.342;2024-03-02T10:54:36;99878.00;;;16.40
19282;BMP180;9774;52.034;5.342;2024-03-02T10:57:08;99878.00;;;16.40
19282;BMP180;9774;52.034;5.342;2024-03-02T10:59:43;99877.00;;;16.50
19282;BMP180;9774;52.034;5.342;2024-03-02T11:02:13;99876.00;;;16.60
19282;BMP180;9774;52.034;5.342;2024-03-02T11:04:44;99881.00;;;16.60
19282;BMP180;9774;52.034;5.342;2024-03-02T11:07:14;99887.00;;;16.70
19282;BMP180;9774;52.034;5.342;2024-03-02T11:09:57;99888.00;;;16.70
19282;BMP180;9774;52.034;5.342;2024-03-02T11:12:29;99878.00;;;16.80
19282;BMP180;9774;52.034;5.342;2024-03-02T11:14:58;99890.00;;;16.90
19282;BMP180;9774;52.034;5.342;2024-03-02T11:17:28;99890.00;;;16.90
19282;BMP180;9774;52.034;5.342;2024-03-02T11:19:58;99878.00;;;16.90
19282;BMP180;9774;52.034;5.342;2024-03-02T11:22:25;99892.00;;;17.00
19282;BMP180;9774;52.034;5.342;2024-03-02T11:24:53;99888.00;;;17.10
19282;BMP180;9774;52.034;5.342;2024-03-02T11:28:00;99888.00;;;17.00
19282;BMP180;9774;52.034;5.342;2024-03-02T11:30:55;99874.00;;;17.00
19282;BMP180;9774;52.034;5.342;2024-03-02T11:33:26;99871.00;;;17.10
19282;BMP180;9774;52.034;5.342;2024-03-02T11:35:57;99869.00;;;17.20
19282;BMP180;9774;52.034;5.342;2024-03-02T11:38:31;99875.00;;;17.20
19282;BMP180;9774;52.034;5.342;2024-03-02T11:41:01;99873.00;;;17.30
19282;BMP180;9774;52.034;5.342;2024-03-02T11:43:29;99875.00;;;17.30
19282;BMP180;9774;52.034;5.342;2024-03-02T11:45:58;99869.00;;;17.40
19282;BMP180;9774;52.034;5.342;2024-03-02T11:48:26;99877.00;;;17.40
19282;BMP180;9774;52.034;5.342;2024-03-02T11:50:59;99875.00;;;17.50
19282;BMP180;9774;52.034;5.342;2024-03-02T11:53:28;99876.00;;;17.50
19282;BMP180;9774;52.034;5.342;2024-03-02T11:55:56;99868.00;;;17.60
19282;BMP180;9774;52.034;5.342;2024-03-02T11:58:23;99864.00;;;17.60
19282;BMP180;9774;52.034;5.342;2024-03-02T12:00:52;99861.00;;;17.70
19282;BMP180;9774;52.034;5.342;2024-03-02T12:03:22;99864.00;;;17.70
19282;BMP180;9774;52.034;5.342;2024-03-02T12:05:52;99863.00;;;17.80
19282;BMP180;9774;52.034;5.342;2024-03-02T12:08:21;99856.00;;;17.90
19282;BMP180;9774;52.034;5.342;2024-03-02T12:11:00;99840.00;;;17.90
19282;BMP180;9774;52.034;5.342;2024-03-02T12:13:28;99844.00;;;18.10
19282;BMP180;9774;52.034;5.342;2024-03-02T12:15:55;99846.00;;;18.20
19282;BMP180;9774;52.034;5.342;2024-03-02T12:18:23;99838.00;;;18.30
19282;BMP180;9774;52.034;5.342;2024-03-02T12:20:51;99835.00;;;18.30
19282;BMP180;9774;52.034;5.342;2024-03-02T12:23:23;99835.00;;;18.40
19282;BMP180;9774;52.034;5.342;2024-03-02T12:25:51;99839.00;;;18.40
19282;BMP180;9774;52.034;5.342;2024-03-02T12:28:19;99832.00;;;18.40
19282;BMP180;9774;52.034;5.342;2024-03-02T12:30:46;99830.00;;;18.50
19282;BMP180;9774;52.034;5.342;2024-03-02T12:33:14;99829.00;;;18.50
19282;BMP180;9774;52.034;5.342;2024-03-02T12:35:41;99826.00;;;18.60
19282;BMP180;9774;52.034;5.342;2024-03-02T12:38:09;99823.00;;;18.60
19282;BMP180;9774;52.034;5.342;2024-03-02T12:40:39;99828.00;;;18.70
19282;BMP180;9774;52.034;5.342;2024-03-02T12:43:06;99813.00;;;18.70
19282;BMP180;9774;52.034;5.342;2024-03-02T12:45:34;99807.00;;;18.70
19282;BMP180;9774;52.034;5.342;2024-03-02T12:48:02;99800.00;;;18.80
19282;BMP180;9774;52.034;5.342;2024-03-02T12:50:31;99805.00;;;18.80
19282;BMP180;9774;52.034;5.342;2024-03-02T12:52:58;99796.00;;;18.90
19282;BMP180;9774;52.034;5.342;2024-03-02T12:55:26;99800.00;;;18.90
19282;BMP180;9774;52.034;5.342;2024-03-02T12:57:56;99796.00;;;18.90
19282;BMP180;9774;52.034;5.342;2024-03-02T13:00:24;99798.00;;;19.00
19282;BMP180;9774;52.034;5.342;2024-03-02T13:02:52;99792.00;;;19.00
19282;BMP180;9774;52.034;5.342;2024-03-02T13:05:19;99795.00;;;19.10
19282;BMP180;9774;52.034;5.342;2024-03-02T13:07:47;99788.00;;;19.10
19282;BMP180;9774;52.034;5.342;2024-03-02T13:10:15;99787.00;;;19.20
19282;BMP180;9774;52.034;5.342;2024-03-02T13:12:42;99797.00;;;19.30
19282;BMP180;9774;52.034;5.342;2024-03-02T13:15:11;99799.00;;;19.30
19282;BMP180;9774;52.034;5.342;2024-03-02T13:17:39;99796.00;;;19.40
19282;BMP180;9774;52.034;5.342;2024-03-02T13:20:07;99797.00;;;19.50
19282;BMP180;9774;52.034;5.342;2024-03-02T13:22:36;99798.00;;;19.60
19282;BMP180;9774;52.034;5.342;2024-03-02T13:25:04;99789.00;;;19.80
19282;BMP180;9774;52.034;5.342;2024-03-02T13:27:34;99795.00;;;20.00
19282;BMP180;9774;52.034;5.342;2024-03-02T13:30:03;99790.00;;;20.30
19282;BMP180;9774;52.034;5.342;2024-03-02T13:32:33;99788.00;;;20.60
19282;BMP180;9774;52.034;5.342;2024-03-02T13:35:00;99795.00;;;21.10
19282;BMP180;9774;52.034;5.342;2024-03-02T13:37:28;99802.00;;;21.70
19282;BMP180;9774;52.034;5.342;2024-03-02T13:39:55;99795.00;;;22.30
19282;BMP180;9774;52.034;5.342;2024-03-02T13:42:23;99803.00;;;22.80
19282;BMP180;9774;52.034;5.342;2024-03-02T13:44:50;99802.00;;;23.30
19282;BMP180;9774;52.034;5.342;2024-03-02T13:47:18;99798.00;;;23.80
19282;BMP180;9774;52.034;5.342;2024-03-02T13:49:47;99804.00;;;24.30
19282;BMP180;9774;52.034;5.342;2024-03-02T13:52:15;99789.00;;;24.80
19282;BMP180;9774;52.034;5.342;2024-03-02T13:54:45;99787.00;;;24.90
19282;BMP180;9774;52.034;5.342;2024-03-02T13:57:12;99785.00;;;24.90
19282;BMP180;9774;52.034;5.342;2024-03-02T13:59:42;99781.00;;;24.90
19282;BMP180;9774;52.034;5.342;2024-03-02T14:02:09;99778.00;;;24.70
19282;BMP180;9774;52.034;5.342;2024-03-02T14:04:38;99779.00;;;24.50
19282;BMP180;9774;52.034;5.342;2024-03-02T14:07:07;99776.00;;;24.40
19282;BMP180;9774;52.034;5.342;2024-03-02T14:09:34;99772.00;;;24.20
19282;BMP180;9774;52.034;5.342;2024-03-02T14:12:03;99776.00;;;24.00
19282;BMP180;9774;52.034;5.342;2024-03-02T14:14:31;99766.00;;;23.70
19282;BMP180;9774;52.034;5.342;2024-03-02T14:16:58;99758.00;;;23.40
19282;BMP180;9774;52.034;5.342;2024-03-02T14:19:29;99750.00;;;23.20
19282;BMP180;9774;52.034;5.342;2024-03-02T14:21:56;99751.00;;;23.00
19282;BMP180;9774;52.034;5.342;2024-03-02T14:24:25;99737.00;;;22.80
19282;BMP180;9774;52.034;5.342;2024-03-02T14:26:54;99732.00;;;22.80
19282;BMP180;9774;52.034;5.342;2024-03-02T14:29:23;99730.00;;;23.10